createdAt,value
2023-04-24T00:00:22.568Z,94.71
2023-04-24T00:02:25.032Z,94.93
2023-04-24T00:04:27.193Z,94.85
2023-04-24T00:06:34.053Z,94.76
2023-04-24T00:08:36.974Z,94.99
2023-04-24T00:10:38.549Z,94.64
2023-04-24T00:12:40.386Z,94.57
2023-04-24T00:14:41.878Z,94.00
2023-04-24T00:16:43.370Z,93.61
2023-04-24T00:18:45.997Z,93.77
2023-04-24T00:20:47.662Z,94.10
2023-04-24T00:22:49.145Z,94.01
2023-04-24T00:24:50.562Z,94.00
2023-04-24T00:26:51.998Z,94.05
2023-04-24T00:28:53.450Z,93.84
2023-04-24T00:30:55.174Z,93.91
2023-04-24T00:32:56.678Z,92.85
2023-04-24T00:34:58.132Z,91.90
2023-04-24T00:36:59.595Z,91.49
2023-04-24T00:39:01.101Z,89.60
2023-04-24T00:41:02.655Z,88.00
2023-04-24T00:43:04.529Z,86.65
2023-04-24T00:45:06.839Z,85.26
2023-04-24T00:47:08.454Z,85.19
2023-04-24T00:49:09.916Z,85.41
2023-04-24T00:51:11.482Z,84.56
2023-04-24T00:53:12.952Z,83.63
2023-04-24T00:55:14.451Z,83.01
2023-04-24T00:57:16.380Z,83.01
2023-04-24T00:59:18.879Z,83.32
2023-04-24T01:01:21.961Z,83.55
2023-04-24T01:03:27.556Z,83.72
2023-04-24T01:05:29.342Z,84.00
2023-04-24T01:07:31.187Z,84.29
2023-04-24T01:09:32.707Z,84.30
2023-04-24T01:11:34.424Z,84.39
2023-04-24T01:13:35.914Z,84.17
2023-04-24T01:15:37.682Z,84.94
2023-04-24T01:17:40.293Z,85.21
2023-04-24T01:19:42.201Z,84.63
2023-04-24T01:21:44.337Z,85.05
2023-04-24T01:23:46.761Z,84.64
2023-04-24T01:25:49.928Z,84.96
2023-04-24T01:27:52.426Z,84.69
2023-04-24T01:29:54.528Z,84.78
2023-04-24T01:31:56.453Z,84.45
2023-04-24T01:33:58.216Z,84.29
2023-04-24T01:35:59.985Z,83.84
2023-04-24T01:38:01.517Z,84.17
2023-04-24T01:40:04.584Z,84.07
2023-04-24T01:42:06.915Z,83.91
2023-04-24T01:44:08.684Z,83.86
2023-04-24T01:46:10.375Z,83.57
2023-04-24T01:48:13.549Z,83.65
2023-04-24T01:50:15.024Z,83.68
2023-04-24T01:52:17.381Z,83.34
2023-04-24T01:54:18.914Z,82.95
2023-04-24T01:56:22.654Z,82.66
2023-04-24T01:58:24.269Z,81.96
2023-04-24T02:00:25.978Z,81.52
2023-04-24T02:02:31.038Z,81.44
2023-04-24T02:04:32.829Z,81.42
2023-04-24T02:06:34.398Z,80.94
2023-04-24T02:08:35.942Z,80.79
2023-04-24T02:10:37.446Z,80.98
2023-04-24T02:12:38.925Z,80.85
2023-04-24T02:14:40.474Z,81.13
2023-04-24T02:16:42.026Z,80.92
2023-04-24T02:18:43.622Z,80.87
2023-04-24T02:20:45.089Z,80.64
2023-04-24T02:22:46.585Z,80.70
2023-04-24T02:24:48.127Z,81.20
2023-04-24T02:26:49.589Z,81.50
2023-04-24T02:28:51.059Z,82.21
2023-04-24T02:30:52.491Z,82.54
2023-04-24T02:32:54.626Z,82.92
2023-04-24T02:34:56.125Z,83.66
2023-04-24T02:36:57.620Z,84.12
2023-04-24T02:38:59.185Z,84.43
2023-04-24T02:41:01.732Z,84.94
2023-04-24T02:43:03.520Z,85.79
2023-04-24T02:45:06.078Z,85.61
2023-04-24T02:47:08.549Z,85.88
2023-04-24T02:49:10.039Z,85.89
2023-04-24T02:51:11.508Z,86.07
2023-04-24T02:53:13.070Z,86.21
2023-04-24T02:55:14.558Z,86.42
2023-04-24T02:57:16.278Z,86.32
2023-04-24T02:59:17.787Z,86.68
2023-04-24T03:01:19.379Z,86.92
2023-04-24T03:03:21.200Z,86.71
2023-04-24T03:05:22.776Z,86.22
2023-04-24T03:07:25.066Z,86.45
2023-04-24T03:09:26.499Z,86.38
2023-04-24T03:11:27.938Z,86.58
2023-04-24T03:13:29.401Z,86.72
2023-04-24T03:15:30.834Z,86.22
2023-04-24T03:17:32.401Z,86.36
2023-04-24T03:19:33.902Z,85.73
2023-04-24T03:21:36.740Z,84.83
2023-04-24T03:23:38.207Z,85.02
2023-04-24T03:25:39.954Z,84.81
2023-04-24T03:27:41.441Z,85.07
2023-04-24T03:29:43.150Z,84.57
2023-04-24T03:31:44.883Z,84.99
2023-04-24T03:33:46.373Z,84.59
2023-04-24T03:35:47.981Z,84.68
2023-04-24T03:37:49.482Z,84.20
2023-04-24T03:39:50.982Z,84.02
2023-04-24T03:41:52.620Z,83.68
2023-04-24T03:43:54.065Z,83.36
2023-04-24T03:45:55.548Z,83.77
2023-04-24T03:47:57.071Z,83.78
2023-04-24T03:49:58.639Z,83.26
2023-04-24T03:52:00.108Z,83.47
2023-04-24T03:54:01.552Z,83.23
2023-04-24T03:56:03.072Z,83.03
2023-04-24T03:58:04.576Z,83.13
2023-04-24T04:00:07.262Z,82.76
2023-04-24T04:02:08.880Z,82.58
2023-04-24T04:04:10.729Z,82.55
2023-04-24T04:06:14.010Z,82.38
2023-04-24T04:08:15.708Z,81.86
2023-04-24T04:10:18.299Z,81.72
2023-04-24T04:12:19.838Z,81.40
2023-04-24T04:14:21.427Z,81.38
2023-04-24T04:16:23.046Z,81.81
2023-04-24T04:18:24.530Z,81.45
2023-04-24T04:20:26.257Z,81.40
2023-04-24T04:22:28.037Z,81.30
2023-04-24T04:24:29.583Z,81.37
2023-04-24T04:26:33.604Z,81.70
2023-04-24T04:28:35.804Z,81.33
2023-04-24T04:30:39.282Z,81.09
2023-04-24T04:32:40.822Z,80.63
2023-04-24T04:34:43.220Z,80.44
2023-04-24T04:36:45.251Z,80.06
2023-04-24T04:38:46.760Z,79.98
2023-04-24T04:40:48.300Z,79.82
2023-04-24T04:42:49.779Z,79.88
2023-04-24T04:44:51.684Z,79.35
2023-04-24T04:46:54.230Z,79.58
2023-04-24T04:48:55.774Z,79.28
2023-04-24T04:50:57.292Z,78.94
2023-04-24T04:52:58.762Z,78.89
2023-04-24T04:55:00.219Z,78.90
2023-04-24T04:57:04.227Z,78.33
2023-04-24T04:59:07.249Z,78.20
2023-04-24T05:01:09.036Z,78.21
2023-04-24T05:03:20.759Z,78.65
2023-04-24T05:05:22.477Z,78.31
2023-04-24T05:07:24.006Z,77.83
2023-04-24T05:09:28.269Z,77.80
2023-04-24T05:11:30.669Z,78.02
2023-04-24T05:13:40.206Z,77.64
2023-04-24T05:15:42.375Z,78.14
2023-04-24T05:17:43.916Z,78.06
2023-04-24T05:19:46.097Z,78.16
2023-04-24T05:21:47.825Z,78.33
2023-04-24T05:23:49.387Z,78.22
2023-04-24T05:25:50.987Z,78.61
2023-04-24T05:27:52.498Z,78.81
2023-04-24T05:29:53.971Z,78.85
2023-04-24T05:31:55.766Z,79.05
2023-04-24T05:33:57.347Z,78.75
2023-04-24T05:35:58.825Z,79.39
2023-04-24T05:38:00.498Z,78.53
2023-04-24T05:40:02.037Z,78.85
2023-04-24T05:42:05.421Z,78.86
2023-04-24T05:44:06.937Z,79.04
2023-04-24T05:46:08.624Z,79.09
2023-04-24T05:48:10.365Z,79.49
2023-04-24T05:50:12.539Z,79.76
2023-04-24T05:52:14.039Z,79.14
2023-04-24T05:54:15.619Z,79.18
2023-04-24T05:56:17.317Z,79.67
2023-04-24T05:58:18.820Z,79.94
2023-04-24T06:00:21.143Z,79.03
2023-04-24T06:02:23.191Z,79.23
2023-04-24T06:04:25.863Z,78.99
2023-04-24T06:06:28.262Z,78.95
2023-04-24T06:08:29.721Z,79.05
2023-04-24T06:10:31.252Z,78.67
2023-04-24T06:12:32.691Z,79.23
2023-04-24T06:14:34.145Z,78.52
2023-04-24T06:16:35.857Z,78.01
2023-04-24T06:18:37.528Z,78.39
2023-04-24T06:20:40.167Z,78.50
2023-04-24T06:22:41.643Z,78.37
2023-04-24T06:24:43.160Z,78.55
2023-04-24T06:26:44.639Z,78.79
2023-04-24T06:28:46.132Z,78.17
2023-04-24T06:30:47.724Z,77.12
2023-04-24T06:32:49.318Z,77.61
2023-04-24T06:34:52.820Z,78.13
2023-04-24T06:36:55.886Z,78.59
2023-04-24T06:38:58.277Z,78.66
2023-04-24T06:40:59.773Z,78.74
2023-04-24T06:43:03.648Z,78.97
2023-04-24T06:45:06.158Z,78.92
2023-04-24T06:47:11.390Z,78.78
2023-04-24T06:49:12.938Z,79.51
2023-04-24T06:51:14.419Z,79.08
2023-04-24T06:53:16.053Z,78.61
2023-04-24T06:55:17.599Z,79.24
2023-04-24T06:57:20.956Z,79.66
2023-04-24T06:59:22.473Z,79.80
2023-04-24T07:01:24.140Z,79.74
2023-04-24T07:03:25.838Z,80.13
2023-04-24T07:05:27.450Z,79.40
2023-04-24T07:07:29.042Z,79.56
2023-04-24T07:09:30.485Z,79.17
2023-04-24T07:11:32.456Z,79.66
2023-04-24T07:13:36.311Z,79.65
2023-04-24T07:15:37.970Z,79.38
2023-04-24T07:17:39.644Z,79.92
2023-04-24T07:19:41.602Z,78.94
2023-04-24T07:21:43.246Z,78.97
2023-04-24T07:23:44.707Z,78.21
2023-04-24T07:25:46.261Z,77.85
2023-04-24T07:27:47.971Z,78.17
2023-04-24T07:29:49.595Z,79.29
2023-04-24T07:31:51.095Z,78.30
2023-04-24T07:33:52.624Z,77.79
2023-04-24T07:35:54.304Z,76.68
2023-04-24T07:37:56.357Z,76.00
2023-04-24T07:39:58.069Z,76.15
2023-04-24T07:42:00.269Z,75.79
2023-04-24T07:44:01.774Z,75.88
2023-04-24T07:46:03.421Z,76.03
2023-04-24T07:48:05.189Z,75.96
2023-04-24T07:50:07.123Z,75.23
2023-04-24T07:52:08.630Z,74.76
2023-04-24T07:54:10.133Z,75.20
2023-04-24T07:56:11.918Z,75.10
2023-04-24T07:58:13.438Z,74.88
2023-04-24T08:00:15.522Z,74.97
2023-04-24T08:02:17.325Z,75.79
2023-04-24T08:04:19.395Z,75.92
2023-04-24T08:06:21.120Z,75.53
2023-04-24T08:08:23.918Z,74.98
2023-04-24T08:10:26.833Z,74.53
2023-04-24T08:12:30.142Z,74.63
2023-04-24T08:14:31.663Z,75.41
2023-04-24T08:16:34.209Z,74.96
2023-04-24T08:18:36.938Z,75.46
2023-04-24T08:20:38.426Z,75.36
2023-04-24T08:22:44.342Z,75.49
2023-04-24T08:24:45.842Z,75.69
2023-04-24T08:26:47.373Z,75.05
2023-04-24T08:28:48.834Z,74.79
2023-04-24T08:30:55.410Z,74.52
2023-04-24T08:32:57.808Z,73.49
2023-04-24T08:35:00.343Z,74.25
2023-04-24T08:37:02.008Z,73.72
2023-04-24T08:39:03.552Z,72.41
2023-04-24T08:41:06.085Z,71.71
2023-04-24T08:43:08.008Z,70.70
2023-04-24T08:45:10.753Z,71.05
2023-04-24T08:47:15.126Z,70.64
2023-04-24T08:49:19.018Z,71.10
2023-04-24T08:51:21.364Z,72.04
2023-04-24T08:53:24.523Z,72.26
2023-04-24T08:55:26.072Z,72.01
2023-04-24T08:57:28.364Z,71.52
2023-04-24T08:59:31.039Z,71.12
2023-04-24T09:01:34.789Z,70.70
2023-04-24T09:03:37.115Z,70.28
2023-04-24T09:05:39.204Z,70.22
2023-04-24T09:07:44.636Z,70.17
2023-04-24T09:09:46.603Z,70.90
2023-04-24T09:11:50.674Z,71.11
2023-04-24T09:13:52.263Z,70.89
2023-04-24T09:15:53.808Z,70.45
2023-04-24T09:17:55.530Z,70.68
2023-04-24T09:19:57.043Z,70.58
2023-04-24T09:21:58.586Z,70.24
2023-04-24T09:24:05.036Z,70.48
2023-04-24T09:26:06.860Z,70.77
2023-04-24T09:28:08.391Z,70.59
2023-04-24T09:30:10.369Z,70.36
2023-04-24T09:32:23.173Z,70.20
2023-04-24T09:34:27.575Z,71.21
2023-04-24T09:36:39.898Z,72.20
2023-04-24T09:38:41.433Z,71.97
2023-04-24T09:40:42.982Z,72.30
2023-04-24T09:42:47.019Z,71.67
2023-04-24T09:44:58.897Z,72.16
2023-04-24T09:47:10.028Z,73.33
2023-04-24T09:49:16.818Z,73.45
2023-04-24T09:51:18.328Z,73.20
2023-04-24T09:53:25.395Z,72.96
2023-04-24T09:55:27.552Z,72.77
2023-04-24T09:57:29.036Z,73.64
2023-04-24T09:59:31.257Z,73.46
2023-04-24T10:01:33.956Z,74.03
2023-04-24T10:03:35.761Z,73.21
2023-04-24T10:05:39.645Z,73.99
2023-04-24T10:07:41.152Z,73.48
2023-04-24T10:09:42.998Z,73.50
2023-04-24T10:11:47.690Z,73.61
2023-04-24T10:13:49.364Z,73.77
2023-04-24T10:15:52.343Z,74.41
2023-04-24T10:17:54.350Z,74.61
2023-04-24T10:19:56.331Z,74.39
2023-04-24T10:21:59.117Z,74.60
2023-04-24T10:24:04.502Z,74.49
2023-04-24T10:26:06.559Z,74.86
2023-04-24T10:28:10.548Z,75.10
2023-04-24T10:30:13.999Z,74.70
2023-04-24T10:32:15.638Z,74.95
2023-04-24T10:34:22.144Z,75.67
2023-04-24T10:36:27.617Z,75.64
2023-04-24T10:38:30.622Z,75.47
2023-04-24T10:40:36.992Z,75.16
2023-04-24T10:42:44.886Z,76.12
2023-04-24T10:44:48.942Z,76.55
2023-04-24T10:49:05.744Z,76.65
2023-04-24T10:51:12.931Z,76.60
2023-04-24T10:53:24.316Z,75.60
2023-04-24T10:55:44.583Z,74.94
2023-04-24T10:58:05.590Z,74.39
2023-04-24T11:00:22.605Z,74.34
2023-04-24T11:02:37.691Z,73.47
2023-04-24T11:04:39.336Z,73.27
2023-04-24T11:06:41.498Z,74.35
2023-04-24T11:08:46.695Z,73.70
2023-04-24T11:10:57.688Z,73.74
2023-04-24T11:12:59.151Z,74.70
2023-04-24T11:15:04.401Z,74.51
2023-04-24T11:17:06.399Z,74.12
2023-04-24T11:19:18.762Z,75.07
2023-04-24T11:21:20.881Z,75.81
2023-04-24T11:23:22.386Z,75.68
2023-04-24T11:25:24.226Z,75.20
2023-04-24T11:27:25.708Z,75.71
2023-04-24T11:29:48.166Z,76.15
2023-04-24T11:31:52.208Z,75.89
2023-04-24T11:33:54.476Z,76.66
2023-04-24T11:35:56.209Z,76.32
2023-04-24T11:40:03.467Z,77.27
2023-04-24T11:42:07.413Z,77.27
2023-04-24T11:44:10.323Z,77.58
2023-04-24T11:46:12.097Z,77.87
2023-04-24T11:48:13.564Z,78.76
2023-04-24T11:50:17.892Z,79.69
2023-04-24T11:52:20.487Z,80.26
2023-04-24T11:54:22.073Z,81.60
2023-04-24T11:56:24.991Z,82.35
2023-04-24T11:58:28.479Z,83.42
2023-04-24T12:00:32.074Z,83.97
2023-04-24T12:02:33.646Z,85.00
2023-04-24T12:04:42.462Z,86.14
2023-04-24T12:07:03.380Z,86.58
2023-04-24T12:09:17.478Z,87.85
2023-04-24T12:11:19.899Z,88.56
2023-04-24T12:13:22.484Z,90.15
2023-04-24T12:15:24.349Z,91.71
2023-04-24T12:17:32.074Z,92.28
2023-04-24T12:19:33.592Z,92.82
2023-04-24T12:21:35.094Z,93.17
2023-04-24T12:23:37.054Z,94.20
2023-04-24T12:25:39.766Z,94.60
2023-04-24T12:27:41.418Z,94.81
2023-04-24T12:29:55.138Z,95.06
2023-04-24T12:31:56.642Z,95.64
2023-04-24T12:33:58.143Z,96.20
2023-04-24T12:35:59.704Z,96.13
2023-04-24T12:38:13.478Z,96.15
2023-04-24T12:40:15.814Z,96.88
2023-04-24T12:42:26.986Z,97.17
2023-04-24T12:44:35.753Z,98.24
2023-04-24T12:46:37.409Z,98.22
2023-04-24T12:48:39.055Z,98.82
2023-04-24T12:50:40.696Z,98.38
2023-04-24T12:52:43.157Z,98.17
2023-04-24T12:54:45.202Z,98.45
2023-04-24T12:56:46.756Z,97.73
2023-04-24T12:58:48.220Z,95.98
2023-04-24T13:00:49.930Z,95.80
2023-04-24T13:02:51.808Z,95.56
2023-04-24T13:04:53.922Z,96.47
2023-04-24T13:06:55.348Z,97.20
2023-04-24T13:08:58.824Z,97.79
2023-04-24T13:11:00.322Z,98.53
2023-04-24T13:13:02.036Z,98.14
2023-04-24T13:15:04.555Z,98.12
2023-04-24T13:17:06.362Z,98.20
2023-04-24T13:19:07.833Z,98.81
2023-04-24T13:21:09.340Z,98.96
2023-04-24T13:23:11.403Z,98.89
2023-04-24T13:25:12.847Z,98.71
2023-04-24T13:27:14.314Z,98.53
2023-04-24T13:29:15.913Z,98.62
2023-04-24T13:31:17.961Z,98.67
2023-04-24T13:33:19.417Z,98.22
2023-04-24T13:35:21.041Z,98.90
2023-04-24T13:37:23.303Z,98.55
2023-04-24T13:39:25.811Z,99.06
2023-04-24T13:41:27.312Z,98.55
2023-04-24T13:43:28.952Z,99.08
2023-04-24T13:45:30.610Z,99.10
2023-04-24T13:47:32.128Z,99.63
2023-04-24T13:49:33.648Z,99.22
2023-04-24T13:51:35.115Z,99.82
2023-04-24T13:53:39.285Z,99.53
2023-04-24T13:55:41.141Z,98.88
2023-04-24T13:57:42.608Z,98.93
2023-04-24T13:59:44.348Z,99.17
2023-04-24T14:01:46.277Z,99.18
2023-04-24T14:03:48.278Z,99.79
2023-04-24T14:05:50.120Z,99.61
2023-04-24T14:07:52.022Z,99.56
2023-04-24T14:09:53.459Z,100.00
2023-04-24T14:11:54.914Z,99.26
2023-04-24T14:13:59.911Z,98.92
2023-04-24T14:16:01.512Z,98.83
2023-04-24T14:18:05.773Z,98.54
2023-04-24T14:20:08.297Z,98.14
2023-04-24T14:22:10.426Z,97.62
2023-04-24T14:24:11.892Z,98.11
2023-04-24T14:26:13.357Z,97.55
2023-04-24T14:28:14.940Z,98.10
2023-04-24T14:30:16.998Z,98.63
2023-04-24T14:32:18.491Z,98.45
2023-04-24T14:34:20.532Z,99.25
2023-04-24T14:36:22.035Z,99.26
2023-04-24T14:38:23.615Z,99.57
2023-04-24T14:40:48.510Z,99.64
2023-04-24T14:42:46.569Z,99.66
2023-04-24T14:44:47.994Z,99.73
2023-04-24T14:46:50.389Z,100.00
2023-04-24T14:48:51.929Z,100.00
2023-04-24T14:50:53.453Z,100.00
2023-04-24T14:52:58.364Z,100.00
2023-04-24T14:54:59.863Z,100.00
2023-04-24T14:57:02.262Z,100.00
2023-04-24T14:59:03.750Z,100.00
2023-04-24T15:01:05.420Z,100.00
2023-04-24T15:03:07.523Z,100.00
2023-04-24T15:05:09.651Z,100.00
2023-04-24T15:07:11.416Z,100.00
2023-04-24T15:09:12.969Z,100.00
2023-04-24T15:11:14.435Z,100.00
2023-04-24T15:13:15.944Z,100.00
2023-04-24T15:15:17.480Z,100.00
2023-04-24T15:17:18.934Z,100.00
2023-04-24T15:19:20.497Z,100.00
2023-04-24T15:21:22.085Z,100.00
2023-04-24T15:23:23.605Z,100.00
2023-04-24T15:25:25.199Z,100.00
2023-04-24T15:27:26.835Z,100.00
2023-04-24T15:29:29.024Z,100.00
2023-04-24T15:31:30.505Z,100.00
2023-04-24T15:33:31.966Z,100.00
2023-04-24T15:35:34.210Z,100.00
2023-04-24T15:37:35.865Z,100.00
2023-04-24T15:39:37.880Z,100.00
2023-04-24T15:41:39.425Z,100.00
2023-04-24T15:43:42.183Z,100.00
2023-04-24T15:45:44.212Z,100.00
2023-04-24T15:47:47.590Z,100.00
2023-04-24T15:49:49.379Z,100.00
2023-04-24T15:51:50.865Z,99.49
2023-04-24T15:53:52.446Z,98.90
2023-04-24T15:55:55.213Z,97.99
2023-04-24T15:57:56.934Z,98.02
2023-04-24T15:59:58.477Z,97.28
2023-04-24T16:02:00.402Z,97.46
2023-04-24T16:04:02.045Z,97.18
2023-04-24T16:06:03.823Z,97.44
2023-04-24T16:08:05.560Z,96.48
2023-04-24T16:10:07.657Z,96.75
2023-04-24T16:12:10.373Z,96.50
2023-04-24T16:14:11.953Z,95.99
2023-04-24T16:16:13.551Z,96.07
2023-04-24T16:18:15.125Z,96.78
2023-04-24T16:20:16.663Z,96.98
2023-04-24T16:22:18.196Z,97.34
2023-04-24T16:24:20.124Z,96.43
2023-04-24T16:26:21.643Z,96.83
2023-04-24T16:28:23.211Z,96.77
2023-04-24T16:30:24.848Z,97.28
2023-04-24T16:32:26.430Z,97.12
2023-04-24T16:34:27.888Z,96.96
2023-04-24T16:36:29.883Z,98.19
2023-04-24T16:38:31.382Z,97.99
2023-04-24T16:40:32.883Z,98.20
2023-04-24T16:42:34.338Z,97.80
2023-04-24T16:44:35.829Z,98.17
2023-04-24T16:46:37.817Z,98.25
2023-04-24T16:48:39.412Z,98.58
2023-04-24T16:50:41.163Z,98.75
2023-04-24T16:52:43.466Z,98.65
2023-04-24T16:54:45.330Z,98.54
2023-04-24T16:56:46.780Z,99.01
2023-04-24T16:58:48.541Z,98.78
2023-04-24T17:00:50.588Z,98.82
2023-04-24T17:02:52.283Z,98.91
2023-04-24T17:04:54.000Z,99.45
2023-04-24T17:06:55.976Z,99.02
2023-04-24T17:08:57.488Z,98.74
2023-04-24T17:10:58.944Z,98.52
2023-04-24T17:13:00.466Z,98.54
2023-04-24T17:15:02.131Z,98.43
2023-04-24T17:17:03.799Z,98.39
2023-04-24T17:19:06.274Z,98.16
2023-04-24T17:21:07.822Z,98.03
2023-04-24T17:23:12.009Z,97.86
2023-04-24T17:25:13.694Z,98.07
2023-04-24T17:27:15.702Z,98.22
2023-04-24T17:29:17.296Z,98.14
2023-04-24T17:31:18.835Z,98.03
2023-04-24T17:33:20.522Z,97.91
2023-04-24T17:35:22.864Z,98.19
2023-04-24T17:37:24.658Z,98.33
2023-04-24T17:39:26.233Z,98.54
2023-04-24T17:41:27.694Z,97.60
2023-04-24T17:43:29.148Z,97.41
2023-04-24T17:45:30.718Z,97.32
2023-04-24T17:47:32.205Z,97.00
2023-04-24T17:49:34.159Z,96.95
2023-04-24T17:51:35.663Z,96.61
2023-04-24T17:53:37.339Z,96.18
2023-04-24T17:55:40.116Z,96.44
2023-04-24T17:57:41.604Z,96.09
2023-04-24T17:59:43.055Z,95.60
2023-04-24T18:01:44.564Z,94.94
2023-04-24T18:03:46.321Z,95.68
2023-04-24T18:05:47.912Z,95.49
2023-04-24T18:07:49.375Z,95.24
2023-04-24T18:09:50.945Z,94.70
2023-04-24T18:11:52.477Z,94.90
2023-04-24T18:13:53.974Z,94.38
2023-04-24T18:15:55.494Z,93.94
2023-04-24T18:17:57.066Z,93.54
2023-04-24T18:19:58.593Z,93.65
2023-04-24T18:22:00.152Z,93.82
2023-04-24T18:24:01.660Z,94.38
2023-04-24T18:26:03.229Z,94.80
2023-04-24T18:28:04.718Z,94.62
2023-04-24T18:30:08.114Z,94.79
2023-04-24T18:32:09.625Z,94.41
2023-04-24T18:34:11.221Z,94.82
2023-04-24T18:36:12.706Z,94.15
2023-04-24T18:38:14.231Z,93.96
2023-04-24T18:40:16.135Z,93.68
2023-04-24T18:42:18.552Z,93.76
2023-04-24T18:44:20.349Z,93.58
2023-04-24T18:46:21.810Z,93.97
2023-04-24T18:48:23.341Z,93.27
2023-04-24T18:50:27.341Z,92.86
2023-04-24T18:52:29.089Z,93.03
2023-04-24T18:54:31.457Z,92.66
2023-04-24T18:56:32.979Z,92.73
2023-04-24T18:58:34.621Z,92.41
2023-04-24T19:00:36.235Z,91.68
2023-04-24T19:02:37.871Z,91.86
2023-04-24T19:04:39.597Z,91.66
2023-04-24T19:06:41.841Z,91.61
2023-04-24T19:08:44.865Z,91.22
2023-04-24T19:10:46.451Z,91.52
2023-04-24T19:12:49.673Z,91.68
2023-04-24T19:14:51.850Z,91.97
2023-04-24T19:16:53.561Z,92.17
2023-04-24T19:18:55.379Z,91.44
2023-04-24T19:20:57.010Z,91.84
2023-04-24T19:22:58.588Z,91.11
2023-04-24T19:25:00.104Z,91.58
2023-04-24T19:27:02.242Z,91.81
2023-04-24T19:29:03.865Z,92.18
2023-04-24T19:31:05.415Z,92.77
2023-04-24T19:33:07.018Z,92.39
2023-04-24T19:35:08.772Z,92.52
2023-04-24T19:37:10.663Z,92.44
2023-04-24T19:39:12.223Z,92.83
2023-04-24T19:41:13.813Z,92.87
2023-04-24T19:43:15.459Z,92.70
2023-04-24T19:45:16.991Z,93.16
2023-04-24T19:47:18.614Z,93.19
2023-04-24T19:49:20.155Z,93.31
2023-04-24T19:51:21.775Z,93.33
2023-04-24T19:53:23.410Z,93.61
2023-04-24T19:55:24.892Z,93.63
2023-04-24T19:57:26.416Z,92.84
2023-04-24T19:59:27.872Z,92.51
2023-04-24T20:01:29.376Z,92.46
2023-04-24T20:03:33.509Z,92.80
2023-04-24T20:05:35.654Z,92.74
2023-04-24T20:07:37.159Z,92.46
2023-04-24T20:09:38.659Z,92.76
2023-04-24T20:11:40.115Z,92.85
2023-04-24T20:13:41.722Z,92.58
2023-04-24T20:15:43.334Z,92.77
2023-04-24T20:17:44.968Z,92.28
2023-04-24T20:19:46.652Z,92.54
2023-04-24T20:21:48.405Z,92.31
2023-04-24T20:23:51.066Z,92.77
2023-04-24T20:25:58.495Z,93.09
2023-04-24T20:28:00.559Z,92.96
2023-04-24T20:30:02.192Z,92.72
2023-04-24T20:32:03.696Z,93.05
2023-04-24T20:34:06.255Z,93.27
2023-04-24T20:36:09.554Z,93.03
2023-04-24T20:38:11.318Z,92.69
2023-04-24T20:40:14.173Z,92.41
2023-04-24T20:42:16.624Z,92.14
2023-04-24T20:44:18.264Z,92.50
2023-04-24T20:46:19.746Z,92.25
2023-04-24T20:48:21.238Z,92.15
2023-04-24T20:50:22.819Z,92.81
2023-04-24T20:52:24.414Z,92.58
2023-04-24T20:54:25.904Z,91.88
2023-04-24T20:56:27.467Z,92.37
2023-04-24T20:58:29.035Z,92.49
2023-04-24T21:00:30.978Z,92.25
2023-04-24T21:02:32.505Z,92.55
2023-04-24T21:04:39.751Z,93.01
2023-04-24T21:06:41.224Z,92.54
2023-04-24T21:08:42.717Z,92.97
2023-04-24T21:10:44.290Z,93.17
2023-04-24T21:12:45.756Z,93.37
2023-04-24T21:14:49.220Z,93.06
2023-04-24T21:16:52.655Z,93.67
2023-04-24T21:18:54.229Z,92.92
2023-04-24T21:20:56.779Z,93.60
2023-04-24T21:22:58.344Z,93.70
2023-04-24T21:24:59.987Z,93.18
2023-04-24T21:27:01.563Z,92.98
2023-04-24T21:29:03.222Z,93.43
2023-04-24T21:31:04.775Z,93.59
2023-04-24T21:33:06.367Z,93.40
2023-04-24T21:35:08.659Z,93.17
2023-04-24T21:37:11.171Z,93.08
2023-04-24T21:39:12.627Z,93.14
2023-04-24T21:41:14.181Z,93.56
2023-04-24T21:43:16.013Z,93.54
2023-04-24T21:45:17.494Z,93.43
2023-04-24T21:47:18.961Z,93.54
2023-04-24T21:49:21.359Z,93.26
2023-04-24T21:51:22.876Z,93.37
2023-04-24T21:53:24.352Z,92.93
2023-04-24T21:55:27.051Z,93.15
2023-04-24T21:57:29.402Z,93.65
2023-04-24T21:59:31.812Z,93.65
2023-04-24T22:01:33.815Z,93.34
2023-04-24T22:03:36.075Z,93.38
2023-04-24T22:05:37.732Z,93.76
2023-04-24T22:07:39.175Z,93.50
2023-04-24T22:09:40.677Z,93.71
2023-04-24T22:11:42.208Z,93.74
2023-04-24T22:13:43.679Z,93.41
2023-04-24T22:15:45.281Z,93.67
2023-04-24T22:17:46.835Z,94.14
2023-04-24T22:19:48.340Z,93.48
2023-04-24T22:21:50.186Z,93.71
2023-04-24T22:23:51.985Z,93.54
2023-04-24T22:25:53.733Z,93.04
2023-04-24T22:27:55.331Z,92.61
2023-04-24T22:29:56.798Z,93.61
2023-04-24T22:31:58.845Z,93.83
2023-04-24T22:34:00.409Z,93.59
2023-04-24T22:36:01.917Z,93.97
2023-04-24T22:38:03.947Z,93.70
2023-04-24T22:40:08.318Z,94.53
2023-04-24T22:42:09.801Z,94.17
2023-04-24T22:44:11.384Z,94.68
2023-04-24T22:46:12.982Z,94.29
2023-04-24T22:48:14.498Z,94.21
2023-04-24T22:50:16.231Z,94.82
2023-04-24T22:52:17.670Z,94.79
2023-04-24T22:54:19.167Z,95.08
2023-04-24T22:56:20.748Z,95.70
2023-04-24T22:58:22.575Z,96.48
2023-04-24T23:00:24.324Z,96.86
2023-04-24T23:02:25.963Z,97.20
2023-04-24T23:04:27.916Z,97.86
2023-04-24T23:06:29.693Z,98.52
2023-04-24T23:08:31.297Z,98.77
2023-04-24T23:10:33.151Z,98.77
2023-04-24T23:12:34.904Z,99.64
2023-04-24T23:14:36.512Z,100.00
2023-04-24T23:16:38.932Z,99.93
2023-04-24T23:18:40.442Z,100.00
2023-04-24T23:20:41.989Z,99.89
2023-04-24T23:22:43.701Z,100.00
2023-04-24T23:24:45.465Z,100.00
2023-04-24T23:26:46.955Z,100.00
2023-04-24T23:28:48.441Z,100.00
2023-04-24T23:30:49.933Z,100.00
2023-04-24T23:32:51.484Z,100.00
2023-04-24T23:34:53.014Z,100.00
2023-04-24T23:36:55.421Z,100.00
2023-04-24T23:38:56.987Z,100.00
2023-04-24T23:40:58.489Z,100.00
2023-04-24T23:43:06.949Z,100.00
2023-04-24T23:45:10.886Z,100.00
2023-04-24T23:47:12.513Z,99.70
2023-04-24T23:49:14.770Z,99.80
2023-04-24T23:51:16.338Z,99.55
2023-04-24T23:53:18.004Z,100.00
2023-04-24T23:55:19.602Z,100.00
2023-04-24T23:57:21.743Z,100.00
2023-04-24T23:59:23.291Z,100.00
